createdAt,value
2016-03-09T00:00:46.081Z,0
2016-03-09T00:01:46.100Z,0
2016-03-09T00:02:46.086Z,0
2016-03-09T00:03:46.119Z,0
2016-03-09T00:04:46.108Z,0
2016-03-09T00:05:46.157Z,0
2016-03-09T00:06:46.144Z,0
2016-03-09T00:07:46.162Z,0
2016-03-09T00:08:46.196Z,0
2016-03-09T00:09:46.183Z,0
2016-03-09T00:10:46.202Z,0
2016-03-09T00:11:46.188Z,0
2016-03-09T00:12:46.223Z,0
2016-03-09T00:13:46.210Z,0
2016-03-09T00:14:46.274Z,0
2016-03-09T00:15:45.496Z,0
2016-03-09T00:16:46.280Z,0
2016-03-09T00:17:46.267Z,0
2016-03-09T00:18:46.270Z,0
2016-03-09T00:19:46.288Z,0
2016-03-09T00:20:46.290Z,0
2016-03-09T00:21:46.325Z,0
2016-03-09T00:22:46.342Z,0
2016-03-09T00:23:46.314Z,0
2016-03-09T00:24:46.364Z,0
2016-03-09T00:25:46.367Z,0
2016-03-09T00:26:46.370Z,0
2016-03-09T00:27:46.356Z,0
2016-03-09T00:28:46.375Z,0
2016-03-09T00:29:46.409Z,0
2016-03-09T00:30:46.396Z,0
2016-03-09T00:31:46.420Z,0
2016-03-09T00:32:46.407Z,0
2016-03-09T00:33:46.442Z,0
2016-03-09T00:34:46.475Z,0
2016-03-09T00:35:46.462Z,0
2016-03-09T00:36:46.465Z,0
2016-03-09T00:37:46.499Z,0
2016-03-09T00:38:46.502Z,0
2016-03-09T00:39:46.520Z,0
2016-03-09T00:40:46.522Z,0
2016-03-09T00:41:46.556Z,0
2016-03-09T00:42:46.559Z,0
2016-03-09T00:43:46.561Z,0
2016-03-09T00:44:46.564Z,0
2016-03-09T00:45:46.583Z,0
2016-03-09T00:46:46.585Z,0
2016-03-09T00:47:46.604Z,0
2016-03-09T00:48:46.590Z,0
2016-03-09T00:49:46.641Z,0
2016-03-09T00:50:46.612Z,0
2016-03-09T00:51:46.646Z,0
2016-03-09T00:52:46.648Z,0
2016-03-09T00:53:46.713Z,0
2016-03-09T00:54:46.670Z,0
2016-03-09T00:55:46.673Z,0
2016-03-09T00:56:46.675Z,0
2016-03-09T00:57:46.724Z,0
2016-03-09T00:58:46.727Z,0
2016-03-09T00:59:46.729Z,0
2016-03-09T01:00:46.732Z,0
2016-03-09T01:01:46.735Z,0
2016-03-09T01:02:46.753Z,0
2016-03-09T01:03:46.756Z,0
2016-03-09T01:04:46.775Z,0
2016-03-09T01:05:46.621Z,0
2016-03-09T01:06:46.788Z,0
2016-03-09T01:07:46.807Z,0
2016-03-09T01:08:46.840Z,0
2016-03-09T01:09:46.828Z,0
2016-03-09T01:10:46.831Z,0
2016-03-09T01:11:46.818Z,0
2016-03-09T01:12:46.851Z,0
2016-03-09T01:13:46.886Z,0
2016-03-09T01:14:46.873Z,0
2016-03-09T01:15:46.891Z,0
2016-03-09T01:16:46.894Z,0
2016-03-09T01:17:46.943Z,0
2016-03-09T01:18:46.914Z,0
2016-03-09T01:19:46.964Z,0
2016-03-09T01:20:46.919Z,0
2016-03-09T01:21:46.986Z,0
2016-03-09T01:22:46.956Z,0
2016-03-09T01:23:46.959Z,0
2016-03-09T01:24:46.994Z,0
2016-03-09T01:25:46.996Z,0
2016-03-09T01:26:46.999Z,0
2016-03-09T01:27:47.017Z,0
2016-03-09T01:28:47.035Z,0
2016-03-09T01:29:47.054Z,0
2016-03-09T01:30:47.040Z,0
2016-03-09T01:31:47.060Z,0
2016-03-09T01:32:47.062Z,0
2016-03-09T01:33:47.096Z,0
2016-03-09T01:34:47.068Z,0
2016-03-09T01:35:47.101Z,0
2016-03-09T01:36:47.104Z,0
2016-03-09T01:37:47.122Z,0
2016-03-09T01:38:47.109Z,0
2016-03-09T01:39:47.142Z,0
2016-03-09T01:40:47.129Z,0
2016-03-09T01:41:47.164Z,0
2016-03-09T01:42:47.151Z,0
2016-03-09T01:43:47.185Z,0
2016-03-09T01:44:47.187Z,0
2016-03-09T01:45:47.206Z,0
2016-03-09T01:46:47.208Z,0
2016-03-09T01:47:47.228Z,0
2016-03-09T01:48:47.230Z,0
2016-03-09T01:49:47.232Z,0
2016-03-09T01:50:47.266Z,0
2016-03-09T01:51:47.253Z,0
2016-03-09T01:52:47.272Z,0
2016-03-09T01:53:47.322Z,0
2016-03-09T01:54:47.292Z,0
2016-03-09T01:55:47.342Z,0
2016-03-09T01:56:47.313Z,0
2016-03-09T01:57:47.348Z,0
2016-03-09T01:58:47.094Z,0
2016-03-09T01:59:47.415Z,0
2016-03-09T02:00:47.199Z,0
2016-03-09T02:01:47.384Z,0
2016-03-09T02:02:47.215Z,0
2016-03-09T02:03:47.373Z,0
2016-03-09T02:04:47.220Z,0
2016-03-09T02:05:47.301Z,0
2016-03-09T02:06:47.245Z,0
2016-03-09T02:07:47.156Z,0
2016-03-09T02:08:46.954Z,0
2016-03-09T02:09:47.345Z,0
2016-03-09T02:10:47.433Z,0
2016-03-09T02:11:47.767Z,0
2016-03-09T02:12:47.475Z,0
2016-03-09T02:13:47.524Z,0
2016-03-09T02:14:47.496Z,0
2016-03-09T02:15:47.374Z,0
2016-03-09T02:16:47.220Z,0
2016-03-09T02:17:47.536Z,0
2016-03-09T02:18:47.226Z,0
2016-03-09T02:19:47.572Z,0
2016-03-09T02:20:47.559Z,0
2016-03-09T02:21:47.577Z,0
2016-03-09T02:22:47.596Z,0
2016-03-09T02:23:47.614Z,0
2016-03-09T02:24:47.617Z,0
2016-03-09T02:25:47.698Z,0
2016-03-09T02:26:47.622Z,0
2016-03-09T02:27:47.671Z,0
2016-03-09T02:28:47.643Z,0
2016-03-09T02:29:47.676Z,0
2016-03-09T02:30:47.664Z,0
2016-03-09T02:31:47.682Z,0
2016-03-09T02:32:47.701Z,0
2016-03-09T02:33:47.687Z,0
2016-03-09T02:34:47.705Z,0
2016-03-09T02:35:47.772Z,0
2016-03-09T02:36:47.727Z,0
2016-03-09T02:37:47.745Z,0
2016-03-09T02:38:47.764Z,0
2016-03-09T02:39:47.782Z,0
2016-03-09T02:40:47.769Z,0
2016-03-09T02:41:47.755Z,0
2016-03-09T02:42:47.775Z,0
2016-03-09T02:43:47.808Z,0
2016-03-09T02:44:47.826Z,0
2016-03-09T02:45:47.845Z,0
2016-03-09T02:46:47.816Z,0
2016-03-09T02:47:47.850Z,0
2016-03-09T02:48:47.853Z,0
2016-03-09T02:49:47.887Z,0
2016-03-09T02:50:47.890Z,0
2016-03-09T02:51:47.923Z,0
2016-03-09T02:52:47.896Z,0
2016-03-09T02:53:47.913Z,0
2016-03-09T02:54:47.915Z,0
2016-03-09T02:55:47.934Z,0
2016-03-09T02:56:47.937Z,0
2016-03-09T02:57:47.955Z,0
2016-03-09T02:58:47.943Z,0
2016-03-09T02:59:47.242Z,0
2016-03-09T03:00:47.964Z,0
2016-03-09T03:01:47.997Z,0
2016-03-09T03:02:48.000Z,0
2016-03-09T03:03:48.018Z,0
2016-03-09T03:04:48.020Z,0
2016-03-09T03:05:48.039Z,0
2016-03-09T03:06:48.042Z,0
2016-03-09T03:07:48.075Z,0
2016-03-09T03:08:48.063Z,0
2016-03-09T03:09:48.097Z,0
2016-03-09T03:10:48.084Z,0
2016-03-09T03:11:48.102Z,0
2016-03-09T03:12:48.089Z,0
2016-03-09T03:13:48.139Z,0
2016-03-09T03:14:48.126Z,0
2016-03-09T03:15:48.144Z,0
2016-03-09T03:16:48.163Z,0
2016-03-09T03:17:48.166Z,0
2016-03-09T03:18:48.168Z,0
2016-03-09T03:19:48.186Z,0
2016-03-09T03:20:48.205Z,0
2016-03-09T03:21:48.207Z,0
2016-03-09T03:22:48.226Z,0
2016-03-09T03:23:48.213Z,0
2016-03-09T03:24:48.246Z,0
2016-03-09T03:25:48.249Z,0
2016-03-09T03:26:49.158Z,0
2016-03-09T03:27:48.287Z,0
2016-03-09T03:28:48.273Z,0
2016-03-09T03:29:48.306Z,0
2016-03-09T03:30:48.294Z,0
2016-03-09T03:31:48.312Z,0
2016-03-09T03:32:48.345Z,0
2016-03-09T03:33:48.334Z,0
2016-03-09T03:34:48.351Z,0
2016-03-09T03:35:48.354Z,0
2016-03-09T03:36:48.356Z,0
2016-03-09T03:37:48.375Z,0
2016-03-09T03:38:48.378Z,0
2016-03-09T03:39:48.380Z,0
2016-03-09T03:40:48.431Z,0
2016-03-09T03:41:48.402Z,0
2016-03-09T03:42:48.436Z,0
2016-03-09T03:43:48.454Z,0
2016-03-09T03:44:47.691Z,0
2016-03-09T03:45:48.460Z,0
2016-03-09T03:46:48.477Z,0
2016-03-09T03:47:48.465Z,0
2016-03-09T03:48:48.499Z,0
2016-03-09T03:49:48.470Z,0
2016-03-09T03:50:48.505Z,0
2016-03-09T03:51:48.538Z,0
2016-03-09T03:52:48.541Z,0
2016-03-09T03:53:48.574Z,0
2016-03-09T03:54:48.546Z,0
2016-03-09T03:55:48.549Z,0
2016-03-09T03:56:48.582Z,0
2016-03-09T03:57:48.617Z,0
2016-03-09T03:58:48.588Z,0
2016-03-09T03:59:48.607Z,0
2016-03-09T04:00:48.625Z,0
2016-03-09T04:01:48.628Z,0
2016-03-09T04:02:48.661Z,0
2016-03-09T04:03:48.633Z,0
2016-03-09T04:04:48.666Z,0
2016-03-09T04:05:48.654Z,0
2016-03-09T04:06:48.672Z,0
2016-03-09T04:07:48.706Z,0
2016-03-09T04:08:48.755Z,0
2016-03-09T04:09:48.711Z,0
2016-03-09T04:10:48.730Z,0
2016-03-09T04:11:48.732Z,0
2016-03-09T04:12:48.736Z,0
2016-03-09T04:13:48.738Z,0
2016-03-09T04:14:48.755Z,0
2016-03-09T04:15:48.774Z,0
2016-03-09T04:16:48.777Z,0
2016-03-09T04:17:48.655Z,0
2016-03-09T04:18:48.798Z,0
2016-03-09T04:19:48.676Z,0
2016-03-09T04:20:48.819Z,0
2016-03-09T04:21:48.852Z,0
2016-03-09T04:22:48.825Z,0
2016-03-09T04:23:48.843Z,0
2016-03-09T04:24:48.861Z,0
2016-03-09T04:25:48.863Z,0
2016-03-09T04:26:48.898Z,0
2016-03-09T04:27:48.916Z,0
2016-03-09T04:28:48.911Z,0
2016-03-09T04:29:48.901Z,0
2016-03-09T04:30:48.892Z,0
2016-03-09T04:31:48.899Z,0
2016-03-09T04:32:48.890Z,0
2016-03-09T04:33:48.886Z,0
2016-03-09T04:34:48.931Z,0
2016-03-09T04:35:48.899Z,0
2016-03-09T04:36:48.912Z,0
2016-03-09T04:37:48.942Z,0
2016-03-09T04:38:48.942Z,0
2016-03-09T04:39:48.928Z,0
2016-03-09T04:40:48.991Z,0
2016-03-09T04:41:48.962Z,0
2016-03-09T04:42:48.979Z,0
2016-03-09T04:43:48.964Z,0
2016-03-09T04:44:48.982Z,0
2016-03-09T04:45:49.015Z,0
2016-03-09T04:46:49.001Z,0
2016-03-09T04:47:49.003Z,0
2016-03-09T04:48:49.036Z,0
2016-03-09T04:49:49.023Z,0
2016-03-09T04:50:49.056Z,0
2016-03-09T04:51:49.044Z,0
2016-03-09T04:52:49.092Z,0
2016-03-09T04:53:49.094Z,0
2016-03-09T04:54:49.082Z,0
2016-03-09T04:55:49.069Z,0
2016-03-09T04:56:49.135Z,0
2016-03-09T04:57:49.152Z,0
2016-03-09T04:58:49.108Z,0
2016-03-09T04:59:49.126Z,0
2016-03-09T05:00:49.130Z,0
2016-03-09T05:01:49.132Z,0
2016-03-09T05:02:49.213Z,0
2016-03-09T05:03:49.169Z,0
2016-03-09T05:04:49.187Z,0
2016-03-09T05:05:48.862Z,0
2016-03-09T05:06:49.213Z,0
2016-03-09T05:07:49.248Z,0
2016-03-09T05:08:49.110Z,0
2016-03-09T05:09:49.237Z,0
2016-03-09T05:10:49.257Z,0
2016-03-09T05:11:49.243Z,0
2016-03-09T05:12:49.277Z,0
2016-03-09T05:13:49.312Z,0
2016-03-09T05:14:49.282Z,0
2016-03-09T05:15:49.317Z,0
2016-03-09T05:16:49.303Z,0
2016-03-09T05:17:49.306Z,0
2016-03-09T05:18:49.309Z,0
2016-03-09T05:19:49.328Z,0
2016-03-09T05:20:49.361Z,0
2016-03-09T05:21:49.333Z,0
2016-03-09T05:22:49.351Z,0
2016-03-09T05:23:49.400Z,0
2016-03-09T05:24:49.387Z,0
2016-03-09T05:25:49.405Z,0
2016-03-09T05:26:49.424Z,0
2016-03-09T05:27:49.411Z,0
2016-03-09T05:28:49.430Z,0
2016-03-09T05:29:49.464Z,0
2016-03-09T05:30:49.436Z,0
2016-03-09T05:32:49.456Z,0
2016-03-09T05:33:49.458Z,0
2016-03-09T05:34:49.461Z,0
2016-03-09T05:35:49.464Z,0
2016-03-09T05:36:48.701Z,0
2016-03-09T05:37:49.516Z,0
2016-03-09T05:38:49.487Z,0
2016-03-09T05:39:49.507Z,0
2016-03-09T05:40:49.525Z,0
2016-03-09T05:41:49.527Z,0
2016-03-09T05:42:49.546Z,0
2016-03-09T05:43:49.580Z,0
2016-03-09T05:44:49.551Z,0
2016-03-09T05:45:49.585Z,0
2016-03-09T05:46:49.587Z,0
2016-03-09T05:47:49.574Z,0
2016-03-09T05:48:49.608Z,0
2016-03-09T05:49:49.611Z,5
2016-03-09T05:50:49.615Z,5
2016-03-09T05:51:49.648Z,5
2016-03-09T05:52:49.650Z,5
2016-03-09T05:53:49.512Z,5
2016-03-09T05:54:49.687Z,5
2016-03-09T05:55:49.658Z,5
2016-03-09T05:56:49.677Z,5
2016-03-09T05:57:49.695Z,10
2016-03-09T05:58:49.714Z,10
2016-03-09T05:59:49.717Z,10
2016-03-09T06:00:49.720Z,10
2016-03-09T06:01:49.722Z,10
2016-03-09T06:02:49.739Z,15
2016-03-09T06:03:49.759Z,15
2016-03-09T06:04:49.793Z,15
2016-03-09T06:05:49.764Z,15
2016-03-09T06:06:49.751Z,15
2016-03-09T06:07:49.800Z,20
2016-03-09T06:08:49.803Z,20
2016-03-09T06:09:49.806Z,20
2016-03-09T06:10:49.825Z,20
2016-03-09T06:11:49.828Z,25
2016-03-09T06:12:49.846Z,25
2016-03-09T06:13:49.864Z,25
2016-03-09T06:14:49.241Z,25
2016-03-09T06:15:49.932Z,25
2016-03-09T06:16:49.887Z,30
2016-03-09T06:17:49.875Z,30
2016-03-09T06:18:49.924Z,30
2016-03-09T06:19:49.911Z,30
2016-03-09T06:20:49.946Z,35
2016-03-09T06:21:49.948Z,35
2016-03-09T06:22:49.794Z,35
2016-03-09T06:23:49.968Z,40
2016-03-09T06:24:49.956Z,40
2016-03-09T06:25:49.990Z,40
2016-03-09T06:26:49.993Z,45
2016-03-09T06:27:49.996Z,45
2016-03-09T06:28:49.998Z,45
2016-03-09T06:29:50.032Z,50
2016-03-09T06:30:50.050Z,50
2016-03-09T06:31:50.053Z,50
2016-03-09T06:32:50.055Z,55
2016-03-09T06:33:50.074Z,55
2016-03-09T06:34:50.062Z,55
2016-03-09T06:35:50.126Z,60
2016-03-09T06:36:50.098Z,60
2016-03-09T06:37:50.116Z,60
2016-03-09T06:38:49.978Z,60
2016-03-09T06:39:50.121Z,65
2016-03-09T06:40:49.999Z,65
2016-03-09T06:41:50.142Z,65
2016-03-09T06:42:50.145Z,65
2016-03-09T06:43:50.164Z,65
2016-03-09T06:44:50.182Z,65
2016-03-09T06:45:50.216Z,70
2016-03-09T06:46:50.218Z,70
2016-03-09T06:47:50.221Z,70
2016-03-09T06:48:50.082Z,70
2016-03-09T06:49:50.211Z,75
2016-03-09T06:50:49.527Z,75
2016-03-09T06:51:49.513Z,75
2016-03-09T06:52:50.282Z,80
2016-03-09T06:53:50.284Z,80
2016-03-09T06:54:50.146Z,80
2016-03-09T06:55:50.320Z,80
2016-03-09T06:56:50.307Z,80
2016-03-09T06:57:50.327Z,85
2016-03-09T06:58:50.329Z,85
2016-03-09T06:59:50.363Z,85
2016-03-09T07:00:50.381Z,85
2016-03-09T07:01:50.383Z,85
2016-03-09T07:02:50.386Z,85
2016-03-09T07:03:50.390Z,85
2016-03-09T07:04:50.376Z,85
2016-03-09T07:05:50.410Z,85
2016-03-09T07:06:50.428Z,90
2016-03-09T07:07:50.447Z,90
2016-03-09T07:08:50.433Z,95
2016-03-09T07:09:50.467Z,90
2016-03-09T07:10:50.440Z,95
2016-03-09T07:11:50.489Z,95
2016-03-09T07:12:50.492Z,100
2016-03-09T07:13:50.510Z,95
2016-03-09T07:14:50.513Z,100
2016-03-09T07:15:50.515Z,100
2016-03-09T07:16:50.533Z,100
2016-03-09T07:17:50.535Z,100
2016-03-09T07:18:50.555Z,105
2016-03-09T07:19:50.573Z,105
2016-03-09T07:20:50.575Z,105
2016-03-09T07:21:50.578Z,110
2016-03-09T07:22:50.596Z,105
2016-03-09T07:23:50.630Z,105
2016-03-09T07:24:50.632Z,105
2016-03-09T07:25:50.620Z,105
2016-03-09T07:26:50.639Z,105
2016-03-09T07:27:50.673Z,110
2016-03-09T07:28:50.676Z,110
2016-03-09T07:29:50.693Z,110
2016-03-09T07:30:50.696Z,115
2016-03-09T07:31:50.715Z,115
2016-03-09T07:32:50.717Z,115
2016-03-09T07:33:50.751Z,115
2016-03-09T07:34:50.723Z,120
2016-03-09T07:35:50.772Z,120
2016-03-09T07:36:50.759Z,125
2016-03-09T07:37:50.761Z,125
2016-03-09T07:38:50.811Z,125
2016-03-09T07:39:50.799Z,125
2016-03-09T07:40:50.817Z,105
2016-03-09T07:41:50.803Z,130
2016-03-09T07:42:50.853Z,125
2016-03-09T07:43:50.855Z,125
2016-03-09T07:44:50.844Z,130
2016-03-09T07:45:50.861Z,130
2016-03-09T07:46:50.911Z,130
2016-03-09T07:47:50.883Z,130
2016-03-09T07:48:50.885Z,130
2016-03-09T07:49:50.935Z,130
2016-03-09T07:50:50.922Z,130
2016-03-09T07:51:50.941Z,130
2016-03-09T07:52:50.927Z,135
2016-03-09T07:53:50.946Z,140
2016-03-09T07:54:50.979Z,135
2016-03-09T07:55:51.013Z,135
2016-03-09T07:56:51.032Z,135
2016-03-09T07:57:51.019Z,135
2016-03-09T07:58:51.021Z,140
2016-03-09T07:59:51.009Z,140
2016-03-09T08:00:50.901Z,140
2016-03-09T08:01:51.076Z,140
2016-03-09T08:02:51.063Z,140
2016-03-09T08:03:51.082Z,140
2016-03-09T08:04:51.084Z,140
2016-03-09T08:05:51.118Z,140
2016-03-09T08:06:51.106Z,145
2016-03-09T08:07:51.139Z,145
2016-03-09T08:08:51.142Z,145
2016-03-09T08:09:51.161Z,145
2016-03-09T08:10:51.163Z,140
2016-03-09T08:11:51.166Z,145
2016-03-09T08:12:51.247Z,145
2016-03-09T08:13:51.233Z,140
2016-03-09T08:14:51.220Z,145
2016-03-09T08:15:51.255Z,150
2016-03-09T08:16:51.226Z,150
2016-03-09T08:17:51.260Z,150
2016-03-09T08:18:51.278Z,150
2016-03-09T08:19:51.249Z,155
2016-03-09T08:20:51.283Z,150
2016-03-09T08:21:51.349Z,155
2016-03-09T08:22:51.289Z,155
2016-03-09T08:23:51.338Z,155
2016-03-09T08:24:51.341Z,155
2016-03-09T08:25:51.329Z,160
2016-03-09T08:26:51.362Z,160
2016-03-09T08:27:51.380Z,160
2016-03-09T08:28:51.430Z,160
2016-03-09T08:29:51.370Z,160
2016-03-09T08:30:51.388Z,160
2016-03-09T08:31:51.407Z,160
2016-03-09T08:32:51.426Z,160
2016-03-09T08:33:51.443Z,160
2016-03-09T08:34:51.462Z,160
2016-03-09T08:35:51.480Z,160
2016-03-09T08:36:51.529Z,160
2016-03-09T08:37:51.471Z,160
2016-03-09T08:38:51.504Z,160
2016-03-09T08:39:51.569Z,160
2016-03-09T08:40:51.540Z,165
2016-03-09T08:41:51.527Z,165
2016-03-09T08:42:51.562Z,170
2016-03-09T08:43:51.581Z,165
2016-03-09T08:44:51.567Z,165
2016-03-09T08:45:51.600Z,170
2016-03-09T08:46:51.900Z,165
2016-03-09T08:47:51.591Z,165
2016-03-09T08:48:51.656Z,165
2016-03-09T08:49:51.644Z,170
2016-03-09T08:50:51.661Z,170
2016-03-09T08:51:51.680Z,170
2016-03-09T08:52:51.683Z,170
2016-03-09T08:53:51.716Z,170
2016-03-09T08:54:51.750Z,170
2016-03-09T08:55:51.705Z,170
2016-03-09T08:56:51.740Z,170
2016-03-09T08:57:51.727Z,170
2016-03-09T08:58:51.760Z,170
2016-03-09T08:59:51.779Z,170
2016-03-09T09:00:51.798Z,175
2016-03-09T09:01:51.785Z,175
2016-03-09T09:02:51.849Z,175
2016-03-09T09:03:51.821Z,175
2016-03-09T09:04:51.839Z,175
2016-03-09T09:05:51.843Z,175
2016-03-09T09:06:51.829Z,175
2016-03-09T09:07:51.879Z,175
2016-03-09T09:08:51.881Z,175
2016-03-09T09:09:51.900Z,170
2016-03-09T09:10:51.934Z,175
2016-03-09T09:11:51.906Z,170
2016-03-09T09:12:51.924Z,165
2016-03-09T09:13:51.801Z,175
2016-03-09T09:14:51.961Z,180
2016-03-09T09:15:51.948Z,180
2016-03-09T09:16:52.012Z,135
2016-03-09T09:17:51.984Z,145
2016-03-09T09:18:52.002Z,140
2016-03-09T09:19:52.036Z,180
2016-03-09T09:20:52.023Z,165
2016-03-09T09:21:52.057Z,180
2016-03-09T09:22:52.075Z,175
2016-03-09T09:23:52.063Z,140
2016-03-09T09:24:52.096Z,180
2016-03-09T09:25:52.115Z,180
2016-03-09T09:26:52.118Z,155
2016-03-09T09:27:52.121Z,180
2016-03-09T09:28:52.154Z,185
2016-03-09T09:29:52.157Z,180
2016-03-09T09:30:52.174Z,185
2016-03-09T09:31:52.194Z,175
2016-03-09T09:32:52.212Z,175
2016-03-09T09:33:52.215Z,185
2016-03-09T09:34:52.232Z,185
2016-03-09T09:35:52.220Z,190
2016-03-09T09:36:52.270Z,195
2016-03-09T09:37:52.241Z,190
2016-03-09T09:38:52.275Z,190
2016-03-09T09:39:52.293Z,190
2016-03-09T09:40:52.312Z,185
2016-03-09T09:41:52.345Z,195
2016-03-09T09:42:52.317Z,195
2016-03-09T09:43:52.335Z,190
2016-03-09T09:44:52.354Z,200
2016-03-09T09:45:52.356Z,195
2016-03-09T09:46:52.390Z,190
2016-03-09T09:47:52.377Z,195
2016-03-09T09:48:52.395Z,190
2016-03-09T09:49:52.430Z,195
2016-03-09T09:50:52.432Z,165
2016-03-09T09:51:52.420Z,190
2016-03-09T09:52:52.484Z,190
2016-03-09T09:53:52.456Z,195
2016-03-09T09:54:52.474Z,190
2016-03-09T09:55:52.524Z,200
2016-03-09T09:56:52.495Z,195
2016-03-09T09:57:52.529Z,195
2016-03-09T09:58:52.579Z,195
2016-03-09T09:59:52.549Z,195
2016-03-09T10:00:52.569Z,195
2016-03-09T10:01:52.602Z,195
2016-03-09T10:02:52.590Z,195
2016-03-09T10:03:52.624Z,200
2016-03-09T10:04:52.626Z,200
2016-03-09T10:05:52.457Z,195
2016-03-09T10:06:52.652Z,185
2016-03-09T10:07:52.672Z,180
2016-03-09T10:08:51.909Z,210
2016-03-09T10:09:52.693Z,215
2016-03-09T10:10:52.696Z,170
2016-03-09T10:11:52.699Z,220
2016-03-09T10:12:52.686Z,205
2016-03-09T10:13:52.782Z,190
2016-03-09T10:14:52.769Z,205
2016-03-09T10:15:52.756Z,205
2016-03-09T10:16:52.775Z,210
2016-03-09T10:17:52.840Z,185
2016-03-09T10:18:52.795Z,205
2016-03-09T10:19:52.829Z,210
2016-03-09T10:20:52.832Z,200
2016-03-09T10:21:52.663Z,210
2016-03-09T10:22:52.868Z,215
2016-03-09T10:23:52.872Z,210
2016-03-09T10:24:52.874Z,210
2016-03-09T10:25:52.907Z,205
2016-03-09T10:26:52.910Z,210
2016-03-09T10:27:52.929Z,200
2016-03-09T10:28:52.979Z,205
2016-03-09T10:29:52.950Z,210
2016-03-09T10:30:52.953Z,205
2016-03-09T10:31:53.003Z,205
2016-03-09T10:32:53.005Z,205
2016-03-09T10:33:53.008Z,200
2016-03-09T10:34:53.057Z,180
2016-03-09T10:35:53.028Z,185
2016-03-09T10:36:53.047Z,170
2016-03-09T10:37:53.064Z,185
2016-03-09T10:38:53.068Z,190
2016-03-09T10:39:53.102Z,180
2016-03-09T10:40:53.105Z,180
2016-03-09T10:41:53.107Z,180
2016-03-09T10:42:53.110Z,185
2016-03-09T10:43:53.160Z,190
2016-03-09T10:44:53.146Z,200
2016-03-09T10:45:53.181Z,200
2016-03-09T10:46:53.043Z,200
2016-03-09T10:47:53.186Z,200
2016-03-09T10:48:53.204Z,200
2016-03-09T10:49:53.238Z,195
2016-03-09T10:50:53.225Z,195
2016-03-09T10:51:53.274Z,200
2016-03-09T10:52:53.246Z,165
2016-03-09T10:53:53.279Z,205
2016-03-09T10:54:53.315Z,205
2016-03-09T10:55:53.301Z,195
2016-03-09T10:56:53.320Z,200
2016-03-09T10:57:53.338Z,195
2016-03-09T10:58:53.310Z,190
2016-03-09T10:59:53.343Z,180
2016-03-09T11:00:53.361Z,170
2016-03-09T11:01:53.396Z,205
2016-03-09T11:02:53.429Z,205
2016-03-09T11:03:53.260Z,200
2016-03-09T11:04:53.403Z,205
2016-03-09T11:05:53.453Z,175
2016-03-09T11:06:53.440Z,190
2016-03-09T11:07:53.474Z,195
2016-03-09T11:08:53.477Z,195
2016-03-09T11:09:53.511Z,195
2016-03-09T11:10:53.498Z,205
2016-03-09T11:11:53.516Z,210
2016-03-09T11:12:53.534Z,210
2016-03-09T11:13:53.537Z,205
2016-03-09T11:14:53.539Z,205
2016-03-09T11:15:53.605Z,205
2016-03-09T11:16:53.591Z,205
2016-03-09T11:17:53.626Z,205
2016-03-09T11:18:53.597Z,195
2016-03-09T11:19:53.632Z,190
2016-03-09T11:20:53.635Z,205
2016-03-09T11:21:53.637Z,200
2016-03-09T11:22:53.670Z,200
2016-03-09T11:23:53.673Z,200
2016-03-09T11:24:53.707Z,200
2016-03-09T11:25:53.694Z,205
2016-03-09T11:26:53.728Z,200
2016-03-09T11:27:53.746Z,205
2016-03-09T11:28:53.734Z,200
2016-03-09T11:29:53.768Z,205
2016-03-09T11:30:53.770Z,170
2016-03-09T11:31:53.789Z,200
2016-03-09T11:32:53.807Z,200
2016-03-09T11:33:53.825Z,185
2016-03-09T11:34:53.765Z,200
2016-03-09T11:35:53.862Z,155
2016-03-09T11:36:53.881Z,200
2016-03-09T11:37:53.945Z,210
2016-03-09T11:38:53.869Z,205
2016-03-09T11:39:53.904Z,205
2016-03-09T11:40:53.906Z,215
2016-03-09T11:41:53.941Z,215
2016-03-09T11:42:53.944Z,210
2016-03-09T11:43:53.977Z,205
2016-03-09T11:44:53.980Z,200
2016-03-09T11:45:53.997Z,200
2016-03-09T11:46:54.001Z,200
2016-03-09T11:47:54.035Z,200
2016-03-09T11:48:54.038Z,200
2016-03-09T11:49:54.040Z,190
2016-03-09T11:50:54.074Z,190
2016-03-09T11:51:54.077Z,190
2016-03-09T11:52:54.110Z,190
2016-03-09T11:53:54.114Z,200
2016-03-09T11:54:54.116Z,195
2016-03-09T11:55:54.135Z,200
2016-03-09T11:56:54.184Z,200
2016-03-09T11:57:53.843Z,200
2016-03-09T11:58:54.189Z,205
2016-03-09T11:59:54.176Z,205
2016-03-09T12:00:54.225Z,210
2016-03-09T12:01:54.213Z,200
2016-03-09T12:02:54.231Z,210
2016-03-09T12:03:54.250Z,195
2016-03-09T12:04:54.268Z,200
2016-03-09T12:05:54.286Z,190
2016-03-09T12:06:54.304Z,165
2016-03-09T12:07:54.323Z,210
2016-03-09T12:08:54.326Z,195
2016-03-09T12:09:54.312Z,220
2016-03-09T12:10:54.330Z,220
2016-03-09T12:11:54.364Z,215
2016-03-09T12:12:54.274Z,220
2016-03-09T12:13:54.433Z,190
2016-03-09T12:14:54.389Z,210
2016-03-09T12:15:54.438Z,205
2016-03-09T12:16:54.519Z,210
2016-03-09T12:17:54.459Z,225
2016-03-09T12:18:54.493Z,195
2016-03-09T12:19:54.464Z,210
2016-03-09T12:20:54.514Z,195
2016-03-09T12:21:54.516Z,225
2016-03-09T12:22:54.519Z,170
2016-03-09T12:23:54.554Z,165
2016-03-09T12:24:54.557Z,170
2016-03-09T12:25:55.106Z,180
2016-03-09T12:26:54.577Z,185
2016-03-09T12:27:54.657Z,175
2016-03-09T12:28:54.630Z,170
2016-03-09T12:29:54.648Z,185
2016-03-09T12:30:54.619Z,165
2016-03-09T12:31:54.668Z,160
2016-03-09T12:32:54.656Z,155
2016-03-09T12:33:54.705Z,160
2016-03-09T12:34:54.708Z,160
2016-03-09T12:35:54.711Z,205
2016-03-09T12:36:54.745Z,195
2016-03-09T12:37:54.747Z,205
2016-03-09T12:38:54.781Z,160
2016-03-09T12:39:54.800Z,160
2016-03-09T12:40:54.817Z,155
2016-03-09T12:41:54.805Z,160
2016-03-09T12:42:54.839Z,155
2016-03-09T12:43:54.858Z,160
2016-03-09T12:44:54.860Z,195
2016-03-09T12:45:54.863Z,160
2016-03-09T12:46:54.881Z,195
2016-03-09T12:47:54.883Z,215
2016-03-09T12:48:54.964Z,215
2016-03-09T12:49:54.920Z,210
2016-03-09T12:50:54.938Z,210
2016-03-09T12:51:54.972Z,210
2016-03-09T12:52:54.974Z,205
2016-03-09T12:53:54.978Z,200
2016-03-09T12:54:55.058Z,155
2016-03-09T12:55:55.030Z,200
2016-03-09T12:56:54.861Z,195
2016-03-09T12:57:55.035Z,195
2016-03-09T12:58:55.054Z,195
2016-03-09T12:59:55.104Z,185
2016-03-09T13:00:55.106Z,185
2016-03-09T13:01:55.109Z,175
2016-03-09T13:02:55.126Z,165
2016-03-09T13:03:55.114Z,170
2016-03-09T13:04:55.148Z,175
2016-03-09T13:05:55.009Z,185
2016-03-09T13:06:55.170Z,185
2016-03-09T13:07:55.203Z,195
2016-03-09T13:08:55.189Z,195
2016-03-09T13:09:55.239Z,195
2016-03-09T13:10:55.242Z,190
2016-03-09T13:11:55.261Z,190
2016-03-09T13:12:55.310Z,185
2016-03-09T13:13:55.281Z,190
2016-03-09T13:14:55.316Z,195
2016-03-09T13:15:55.302Z,195
2016-03-09T13:16:55.322Z,195
2016-03-09T13:17:55.370Z,190
2016-03-09T13:18:55.342Z,190
2016-03-09T13:19:55.236Z,190
2016-03-09T13:20:55.394Z,190
2016-03-09T13:21:55.413Z,190
2016-03-09T13:22:55.462Z,190
2016-03-09T13:23:55.418Z,190
2016-03-09T13:24:55.452Z,185
2016-03-09T13:25:55.470Z,185
2016-03-09T13:26:55.505Z,180
2016-03-09T13:27:55.491Z,180
2016-03-09T13:28:55.354Z,180
2016-03-09T13:29:55.512Z,180
2016-03-09T13:30:55.546Z,175
2016-03-09T13:31:55.549Z,180
2016-03-09T13:32:55.582Z,175
2016-03-09T13:33:55.426Z,180
2016-03-09T13:34:55.589Z,180
2016-03-09T13:35:55.595Z,175
2016-03-09T13:36:55.586Z,180
2016-03-09T13:37:55.591Z,180
2016-03-09T13:38:55.427Z,185
2016-03-09T13:39:55.612Z,190
2016-03-09T13:40:55.642Z,185
2016-03-09T13:41:55.672Z,185
2016-03-09T13:42:55.638Z,185
2016-03-09T13:43:55.653Z,185
2016-03-09T13:44:55.654Z,185
2016-03-09T13:45:55.718Z,185
2016-03-09T13:46:55.688Z,190
2016-03-09T13:47:55.720Z,180
2016-03-09T13:48:55.721Z,165
2016-03-09T13:49:55.738Z,185
2016-03-09T13:50:55.756Z,190
2016-03-09T13:51:55.774Z,185
2016-03-09T13:52:55.806Z,180
2016-03-09T13:53:55.808Z,180
2016-03-09T13:54:55.812Z,180
2016-03-09T13:55:55.830Z,135
2016-03-09T13:56:55.833Z,130
2016-03-09T13:57:55.882Z,170
2016-03-09T13:58:55.884Z,170
2016-03-09T13:59:55.887Z,170
2016-03-09T14:00:55.890Z,175
2016-03-09T14:01:55.924Z,135
2016-03-09T14:02:55.941Z,160
2016-03-09T14:03:55.976Z,165
2016-03-09T14:04:55.947Z,165
2016-03-09T14:05:55.997Z,165
2016-03-09T14:06:55.968Z,160
2016-03-09T14:07:56.002Z,150
2016-03-09T14:08:56.005Z,165
2016-03-09T14:09:56.054Z,140
2016-03-09T14:10:56.073Z,165
2016-03-09T14:11:56.060Z,165
2016-03-09T14:12:56.391Z,165
2016-03-09T14:13:55.940Z,140
2016-03-09T14:14:56.099Z,165